sensor_id;sensor_type;location;lat;lon;timestamp;temperature;humidity
44229;DHT22;29904;51.058;5.378;2022-11-20T00:01:14;3.70;99.90
44229;DHT22;29904;51.058;5.378;2022-11-20T00:03:41;3.70;99.90
44229;DHT22;29904;51.058;5.378;2022-11-20T00:06:09;3.60;99.90
44229;DHT22;29904;51.058;5.378;2022-11-20T00:08:35;3.50;99.90
44229;DHT22;29904;51.058;5.378;2022-11-20T00:11:10;3.50;99.90
44229;DHT22;29904;51.058;5.378;2022-11-20T00:13:36;3.40;99.90
44229;DHT22;29904;51.058;5.378;2022-11-20T00:16:04;3.40;99.90
44229;DHT22;29904;51.058;5.378;2022-11-20T00:18:33;3.40;99.90
44229;DHT22;29904;51.058;5.378;2022-11-20T00:21:07;3.30;99.90
44229;DHT22;29904;51.058;5.378;2022-11-20T00:23:33;3.30;99.90
44229;DHT22;29904;51.058;5.378;2022-11-20T00:26:03;3.30;99.90
44229;DHT22;29904;51.058;5.378;2022-11-20T00:28:30;3.30;99.90
44229;DHT22;29904;51.058;5.378;2022-11-20T00:33:28;3.30;99.90
44229;DHT22;29904;51.058;5.378;2022-11-20T00:35:59;3.30;99.90
44229;DHT22;29904;51.058;5.378;2022-11-20T00:38:27;3.40;99.90
44229;DHT22;29904;51.058;5.378;2022-11-20T00:40:57;3.30;99.90
44229;DHT22;29904;51.058;5.378;2022-11-20T00:43:28;3.30;99.90
44229;DHT22;29904;51.058;5.378;2022-11-20T00:46:03;3.30;99.90
44229;DHT22;29904;51.058;5.378;2022-11-20T00:48:30;3.40;99.90
44229;DHT22;29904;51.058;5.378;2022-11-20T00:50:56;3.30;99.90
44229;DHT22;29904;51.058;5.378;2022-11-20T00:53:22;3.30;99.90
44229;DHT22;29904;51.058;5.378;2022-11-20T00:56:08;3.30;99.90
44229;DHT22;29904;51.058;5.378;2022-11-20T00:58:36;3.30;99.90
44229;DHT22;29904;51.058;5.378;2022-11-20T01:01:06;3.40;99.90
44229;DHT22;29904;51.058;5.378;2022-11-20T01:03:36;3.40;99.90
44229;DHT22;29904;51.058;5.378;2022-11-20T01:06:10;3.40;99.90
44229;DHT22;29904;51.058;5.378;2022-11-20T01:08:36;3.40;99.90
44229;DHT22;29904;51.058;5.378;2022-11-20T01:11:04;3.40;99.90
44229;DHT22;29904;51.058;5.378;2022-11-20T01:13:33;3.40;99.90
44229;DHT22;29904;51.058;5.378;2022-11-20T01:18:55;3.50;99.90
44229;DHT22;29904;51.058;5.378;2022-11-20T01:21:26;3.50;99.90
44229;DHT22;29904;51.058;5.378;2022-11-20T01:23:52;3.60;99.90
44229;DHT22;29904;51.058;5.378;2022-11-20T01:26:22;3.50;99.90
44229;DHT22;29904;51.058;5.378;2022-11-20T01:28:48;3.60;99.90
44229;DHT22;29904;51.058;5.378;2022-11-20T01:31:17;3.60;99.90
44229;DHT22;29904;51.058;5.378;2022-11-20T01:33:46;3.60;99.90
44229;DHT22;29904;51.058;5.378;2022-11-20T01:36:13;3.60;99.90
44229;DHT22;29904;51.058;5.378;2022-11-20T01:38:39;3.60;99.90
44229;DHT22;29904;51.058;5.378;2022-11-20T01:41:05;3.60;99.90
44229;DHT22;29904;51.058;5.378;2022-11-20T01:43:31;3.60;99.90
44229;DHT22;29904;51.058;5.378;2022-11-20T01:46:17;3.60;99.90
44229;DHT22;29904;51.058;5.378;2022-11-20T01:48:49;3.60;99.90
44229;DHT22;29904;51.058;5.378;2022-11-20T01:51:39;3.60;99.90
44229;DHT22;29904;51.058;5.378;2022-11-20T01:54:09;3.60;99.90
44229;DHT22;29904;51.058;5.378;2022-11-20T01:56:39;3.70;99.90
44229;DHT22;29904;51.058;5.378;2022-11-20T01:59:07;3.70;99.90
44229;DHT22;29904;51.058;5.378;2022-11-20T02:01:34;3.70;99.90
44229;DHT22;29904;51.058;5.378;2022-11-20T02:04:00;3.80;99.90
44229;DHT22;29904;51.058;5.378;2022-11-20T02:06:34;3.80;99.90
44229;DHT22;29904;51.058;5.378;2022-11-20T02:09:02;3.70;99.90
44229;DHT22;29904;51.058;5.378;2022-11-20T02:11:30;3.60;99.90
44229;DHT22;29904;51.058;5.378;2022-11-20T02:13:56;3.60;99.90
44229;DHT22;29904;51.058;5.378;2022-11-20T02:18:51;3.50;99.90
44229;DHT22;29904;51.058;5.378;2022-11-20T02:24:07;3.30;99.90
44229;DHT22;29904;51.058;5.378;2022-11-20T02:26:59;3.10;99.90
44229;DHT22;29904;51.058;5.378;2022-11-20T02:32:25;3.20;99.90
44229;DHT22;29904;51.058;5.378;2022-11-20T02:34:51;3.20;99.90
44229;DHT22;29904;51.058;5.378;2022-11-20T02:37:17;3.20;99.90
44229;DHT22;29904;51.058;5.378;2022-11-20T02:39:45;3.20;99.90
44229;DHT22;29904;51.058;5.378;2022-11-20T02:42:11;3.20;99.90
44229;DHT22;29904;51.058;5.378;2022-11-20T02:44:37;3.20;99.90
44229;DHT22;29904;51.058;5.378;2022-11-20T02:47:03;3.10;99.90
44229;DHT22;29904;51.058;5.378;2022-11-20T02:49:29;3.10;99.90
44229;DHT22;29904;51.058;5.378;2022-11-20T02:51:54;3.10;99.90
44229;DHT22;29904;51.058;5.378;2022-11-20T02:54:20;3.10;99.90
44229;DHT22;29904;51.058;5.378;2022-11-20T02:56:46;3.20;99.90
44229;DHT22;29904;51.058;5.378;2022-11-20T02:59:11;3.20;99.90
44229;DHT22;29904;51.058;5.378;2022-11-20T03:01:39;3.30;99.90
44229;DHT22;29904;51.058;5.378;2022-11-20T03:04:05;3.30;99.90
44229;DHT22;29904;51.058;5.378;2022-11-20T03:06:31;3.30;99.90
44229;DHT22;29904;51.058;5.378;2022-11-20T03:08:57;3.30;99.90
44229;DHT22;29904;51.058;5.378;2022-11-20T03:11:22;3.30;99.90
44229;DHT22;29904;51.058;5.378;2022-11-20T03:13:48;3.30;99.90
44229;DHT22;29904;51.058;5.378;2022-11-20T03:16:17;3.40;99.90
44229;DHT22;29904;51.058;5.378;2022-11-20T03:18:43;3.30;99.90
44229;DHT22;29904;51.058;5.378;2022-11-20T03:21:10;3.40;99.90
44229;DHT22;29904;51.058;5.378;2022-11-20T03:23:37;3.40;99.90
44229;DHT22;29904;51.058;5.378;2022-11-20T03:26:24;3.50;99.90
44229;DHT22;29904;51.058;5.378;2022-11-20T03:28:55;3.50;99.90
44229;DHT22;29904;51.058;5.378;2022-11-20T03:31:33;3.60;99.90
44229;DHT22;29904;51.058;5.378;2022-11-20T03:34:00;3.60;99.90
44229;DHT22;29904;51.058;5.378;2022-11-20T03:36:27;3.60;99.90
44229;DHT22;29904;51.058;5.378;2022-11-20T03:38:54;3.50;99.90
44229;DHT22;29904;51.058;5.378;2022-11-20T03:41:29;3.50;99.90
44229;DHT22;29904;51.058;5.378;2022-11-20T03:43:57;3.50;99.90
44229;DHT22;29904;51.058;5.378;2022-11-20T03:46:24;3.60;99.90
44229;DHT22;29904;51.058;5.378;2022-11-20T03:48:51;3.60;99.90
44229;DHT22;29904;51.058;5.378;2022-11-20T03:51:20;3.50;99.90
44229;DHT22;29904;51.058;5.378;2022-11-20T03:53:47;3.60;99.90
44229;DHT22;29904;51.058;5.378;2022-11-20T03:56:16;3.60;99.90
44229;DHT22;29904;51.058;5.378;2022-11-20T03:58:42;3.50;99.90
44229;DHT22;29904;51.058;5.378;2022-11-20T04:01:11;3.50;99.90
44229;DHT22;29904;51.058;5.378;2022-11-20T04:03:39;3.60;99.90
44229;DHT22;29904;51.058;5.378;2022-11-20T04:06:08;3.60;99.90
44229;DHT22;29904;51.058;5.378;2022-11-20T04:08:34;3.70;99.90
44229;DHT22;29904;51.058;5.378;2022-11-20T04:13:39;3.70;99.90
44229;DHT22;29904;51.058;5.378;2022-11-20T04:16:06;3.70;99.90
44229;DHT22;29904;51.058;5.378;2022-11-20T04:18:34;3.70;99.90
44229;DHT22;29904;51.058;5.378;2022-11-20T04:21:00;3.70;99.90
44229;DHT22;29904;51.058;5.378;2022-11-20T04:23:26;3.70;99.90
44229;DHT22;29904;51.058;5.378;2022-11-20T04:25:54;3.80;99.90
44229;DHT22;29904;51.058;5.378;2022-11-20T04:28:20;3.80;99.90
44229;DHT22;29904;51.058;5.378;2022-11-20T04:30:46;3.90;99.90
44229;DHT22;29904;51.058;5.378;2022-11-20T04:33:14;3.90;99.90
44229;DHT22;29904;51.058;5.378;2022-11-20T04:35:39;4.00;99.90
44229;DHT22;29904;51.058;5.378;2022-11-20T04:38:05;3.90;99.90
44229;DHT22;29904;51.058;5.378;2022-11-20T04:40:31;4.00;99.90
44229;DHT22;29904;51.058;5.378;2022-11-20T04:42:57;3.90;99.90
44229;DHT22;29904;51.058;5.378;2022-11-20T04:45:23;3.90;99.90
44229;DHT22;29904;51.058;5.378;2022-11-20T04:47:50;3.90;99.90
44229;DHT22;29904;51.058;5.378;2022-11-20T04:50:16;3.90;99.90
44229;DHT22;29904;51.058;5.378;2022-11-20T04:52:42;3.90;99.90
44229;DHT22;29904;51.058;5.378;2022-11-20T04:55:10;4.00;99.90
44229;DHT22;29904;51.058;5.378;2022-11-20T04:57:35;3.90;99.90
44229;DHT22;29904;51.058;5.378;2022-11-20T05:00:01;3.90;99.90
44229;DHT22;29904;51.058;5.378;2022-11-20T05:02:27;3.80;99.90
44229;DHT22;29904;51.058;5.378;2022-11-20T05:04:52;3.80;99.90
44229;DHT22;29904;51.058;5.378;2022-11-20T05:07:18;3.90;99.90
44229;DHT22;29904;51.058;5.378;2022-11-20T05:09:46;3.90;99.90
44229;DHT22;29904;51.058;5.378;2022-11-20T05:12:12;3.90;99.90
44229;DHT22;29904;51.058;5.378;2022-11-20T05:14:39;3.90;99.90
44229;DHT22;29904;51.058;5.378;2022-11-20T05:17:05;3.90;99.90
44229;DHT22;29904;51.058;5.378;2022-11-20T05:19:30;3.90;99.90
44229;DHT22;29904;51.058;5.378;2022-11-20T05:21:56;3.90;99.90
44229;DHT22;29904;51.058;5.378;2022-11-20T05:24:22;3.90;99.90
44229;DHT22;29904;51.058;5.378;2022-11-20T05:26:48;4.00;99.90
44229;DHT22;29904;51.058;5.378;2022-11-20T05:29:16;4.00;99.90
44229;DHT22;29904;51.058;5.378;2022-11-20T05:31:41;4.00;99.90
44229;DHT22;29904;51.058;5.378;2022-11-20T05:34:07;4.00;99.90
44229;DHT22;29904;51.058;5.378;2022-11-20T05:36:33;4.00;99.90
44229;DHT22;29904;51.058;5.378;2022-11-20T05:38:59;4.00;99.90
44229;DHT22;29904;51.058;5.378;2022-11-20T05:41:25;4.00;99.90
44229;DHT22;29904;51.058;5.378;2022-11-20T05:43:51;4.00;99.90
44229;DHT22;29904;51.058;5.378;2022-11-20T05:46:19;4.00;99.90
44229;DHT22;29904;51.058;5.378;2022-11-20T05:48:46;4.00;99.90
44229;DHT22;29904;51.058;5.378;2022-11-20T05:51:15;4.00;99.90
44229;DHT22;29904;51.058;5.378;2022-11-20T05:53:43;4.00;99.90
44229;DHT22;29904;51.058;5.378;2022-11-20T05:56:11;3.90;99.90
44229;DHT22;29904;51.058;5.378;2022-11-20T05:58:37;3.90;99.90
44229;DHT22;29904;51.058;5.378;2022-11-20T06:01:23;3.90;99.90
44229;DHT22;29904;51.058;5.378;2022-11-20T06:03:50;3.90;99.90
44229;DHT22;29904;51.058;5.378;2022-11-20T06:06:17;3.90;99.90
44229;DHT22;29904;51.058;5.378;2022-11-20T06:08:45;3.80;99.90
44229;DHT22;29904;51.058;5.378;2022-11-20T06:11:12;3.90;99.90
44229;DHT22;29904;51.058;5.378;2022-11-20T06:13:38;3.90;99.90
44229;DHT22;29904;51.058;5.378;2022-11-20T06:16:05;3.90;99.90
44229;DHT22;29904;51.058;5.378;2022-11-20T06:18:31;4.00;99.90
44229;DHT22;29904;51.058;5.378;2022-11-20T06:21:08;4.00;99.90
44229;DHT22;29904;51.058;5.378;2022-11-20T06:23:36;4.00;99.90
44229;DHT22;29904;51.058;5.378;2022-11-20T06:26:07;4.00;99.90
44229;DHT22;29904;51.058;5.378;2022-11-20T06:28:35;4.00;99.90
44229;DHT22;29904;51.058;5.378;2022-11-20T06:31:02;4.00;99.90
44229;DHT22;29904;51.058;5.378;2022-11-20T06:33:27;4.00;99.90
44229;DHT22;29904;51.058;5.378;2022-11-20T06:35:56;4.00;99.90
44229;DHT22;29904;51.058;5.378;2022-11-20T06:38:23;4.00;99.90
44229;DHT22;29904;51.058;5.378;2022-11-20T06:40:49;4.00;99.90
44229;DHT22;29904;51.058;5.378;2022-11-20T06:43:16;4.10;99.90
44229;DHT22;29904;51.058;5.378;2022-11-20T06:45:42;4.10;99.90
44229;DHT22;29904;51.058;5.378;2022-11-20T06:48:08;4.10;99.90
44229;DHT22;29904;51.058;5.378;2022-11-20T06:50:36;4.20;99.90
44229;DHT22;29904;51.058;5.378;2022-11-20T06:53:03;4.10;99.90
44229;DHT22;29904;51.058;5.378;2022-11-20T06:55:30;4.10;99.90
44229;DHT22;29904;51.058;5.378;2022-11-20T06:57:56;4.10;99.90
44229;DHT22;29904;51.058;5.378;2022-11-20T07:00:21;4.10;99.90
44229;DHT22;29904;51.058;5.378;2022-11-20T07:02:47;4.10;99.90
44229;DHT22;29904;51.058;5.378;2022-11-20T07:05:13;4.10;99.90
44229;DHT22;29904;51.058;5.378;2022-11-20T07:07:39;4.10;99.90
44229;DHT22;29904;51.058;5.378;2022-11-20T07:10:05;4.10;99.90
44229;DHT22;29904;51.058;5.378;2022-11-20T07:12:30;4.10;99.90
44229;DHT22;29904;51.058;5.378;2022-11-20T07:14:56;4.10;99.90
44229;DHT22;29904;51.058;5.378;2022-11-20T07:17:22;4.10;99.90
44229;DHT22;29904;51.058;5.378;2022-11-20T07:19:48;4.10;99.90
44229;DHT22;29904;51.058;5.378;2022-11-20T07:22:13;4.20;99.90
44229;DHT22;29904;51.058;5.378;2022-11-20T07:24:39;4.20;99.90
44229;DHT22;29904;51.058;5.378;2022-11-20T07:27:05;4.20;99.90
44229;DHT22;29904;51.058;5.378;2022-11-20T07:29:31;4.30;99.90
44229;DHT22;29904;51.058;5.378;2022-11-20T07:31:56;4.40;99.90
44229;DHT22;29904;51.058;5.378;2022-11-20T07:34:22;4.30;99.90
44229;DHT22;29904;51.058;5.378;2022-11-20T07:36:48;4.40;99.90
44229;DHT22;29904;51.058;5.378;2022-11-20T07:39:14;4.40;99.90
44229;DHT22;29904;51.058;5.378;2022-11-20T07:41:39;4.40;99.90
44229;DHT22;29904;51.058;5.378;2022-11-20T07:44:05;4.40;99.90
44229;DHT22;29904;51.058;5.378;2022-11-20T07:46:33;4.50;99.90
44229;DHT22;29904;51.058;5.378;2022-11-20T07:48:58;4.60;99.90
44229;DHT22;29904;51.058;5.378;2022-11-20T07:51:24;4.50;99.90
44229;DHT22;29904;51.058;5.378;2022-11-20T07:53:52;4.60;99.90
44229;DHT22;29904;51.058;5.378;2022-11-20T07:56:17;4.50;99.90
44229;DHT22;29904;51.058;5.378;2022-11-20T07:58:43;4.50;99.90
44229;DHT22;29904;51.058;5.378;2022-11-20T08:01:09;4.50;99.90
44229;DHT22;29904;51.058;5.378;2022-11-20T08:03:35;4.60;99.90
44229;DHT22;29904;51.058;5.378;2022-11-20T08:06:03;4.80;99.90
44229;DHT22;29904;51.058;5.378;2022-11-20T08:08:29;4.90;99.90
44229;DHT22;29904;51.058;5.378;2022-11-20T08:10:57;5.00;99.90
44229;DHT22;29904;51.058;5.378;2022-11-20T08:13:42;5.10;99.90
44229;DHT22;29904;51.058;5.378;2022-11-20T08:16:26;5.20;99.90
44229;DHT22;29904;51.058;5.378;2022-11-20T08:18:52;5.20;99.90
44229;DHT22;29904;51.058;5.378;2022-11-20T08:21:17;5.20;99.90
44229;DHT22;29904;51.058;5.378;2022-11-20T08:23:43;5.20;99.90
44229;DHT22;29904;51.058;5.378;2022-11-20T08:26:10;5.20;99.90
44229;DHT22;29904;51.058;5.378;2022-11-20T08:28:36;5.30;99.90
44229;DHT22;29904;51.058;5.378;2022-11-20T08:31:03;5.30;99.90
44229;DHT22;29904;51.058;5.378;2022-11-20T08:33:31;5.30;99.90
44229;DHT22;29904;51.058;5.378;2022-11-20T08:36:00;5.30;99.90
44229;DHT22;29904;51.058;5.378;2022-11-20T08:38:26;5.30;99.90
44229;DHT22;29904;51.058;5.378;2022-11-20T08:40:52;5.30;99.90
44229;DHT22;29904;51.058;5.378;2022-11-20T08:43:39;5.30;99.90
44229;DHT22;29904;51.058;5.378;2022-11-20T08:46:07;5.40;99.90
44229;DHT22;29904;51.058;5.378;2022-11-20T08:48:33;5.40;99.90
44229;DHT22;29904;51.058;5.378;2022-11-20T08:51:01;5.40;99.90
44229;DHT22;29904;51.058;5.378;2022-11-20T08:53:27;5.50;99.90
44229;DHT22;29904;51.058;5.378;2022-11-20T08:55:53;5.50;99.90
44229;DHT22;29904;51.058;5.378;2022-11-20T08:58:20;5.60;99.90
44229;DHT22;29904;51.058;5.378;2022-11-20T09:00:48;5.70;99.90
44229;DHT22;29904;51.058;5.378;2022-11-20T09:03:13;5.80;99.90
44229;DHT22;29904;51.058;5.378;2022-11-20T09:05:39;5.90;99.90
44229;DHT22;29904;51.058;5.378;2022-11-20T09:08:07;5.90;99.90
44229;DHT22;29904;51.058;5.378;2022-11-20T09:10:33;5.80;99.90
44229;DHT22;29904;51.058;5.378;2022-11-20T09:12:59;5.80;99.90
44229;DHT22;29904;51.058;5.378;2022-11-20T09:15:27;5.80;99.90
44229;DHT22;29904;51.058;5.378;2022-11-20T09:17:53;5.80;99.90
44229;DHT22;29904;51.058;5.378;2022-11-20T09:20:19;5.90;99.90
44229;DHT22;29904;51.058;5.378;2022-11-20T09:22:46;5.90;99.90
44229;DHT22;29904;51.058;5.378;2022-11-20T09:25:14;5.90;99.90
44229;DHT22;29904;51.058;5.378;2022-11-20T09:27:40;5.90;99.90
44229;DHT22;29904;51.058;5.378;2022-11-20T09:30:09;6.00;99.90
44229;DHT22;29904;51.058;5.378;2022-11-20T09:32:35;6.00;99.90
44229;DHT22;29904;51.058;5.378;2022-11-20T09:35:01;6.00;99.90
44229;DHT22;29904;51.058;5.378;2022-11-20T09:37:27;6.10;99.90
44229;DHT22;29904;51.058;5.378;2022-11-20T09:39:53;6.10;99.90
44229;DHT22;29904;51.058;5.378;2022-11-20T09:42:39;6.20;99.90
44229;DHT22;29904;51.058;5.378;2022-11-20T09:48:18;6.30;99.90
44229;DHT22;29904;51.058;5.378;2022-11-20T09:56:28;6.50;99.90
44229;DHT22;29904;51.058;5.378;2022-11-20T09:58:57;6.60;99.90
44229;DHT22;29904;51.058;5.378;2022-11-20T10:01:29;6.70;99.90
44229;DHT22;29904;51.058;5.378;2022-11-20T10:04:16;6.80;99.90
44229;DHT22;29904;51.058;5.378;2022-11-20T10:09:37;6.80;99.90
44229;DHT22;29904;51.058;5.378;2022-11-20T10:20:29;6.80;99.90
44229;DHT22;29904;51.058;5.378;2022-11-20T10:26:35;6.70;99.90
44229;DHT22;29904;51.058;5.378;2022-11-20T10:33:57;6.90;99.90
44229;DHT22;29904;51.058;5.378;2022-11-20T10:36:30;6.90;99.90
44229;DHT22;29904;51.058;5.378;2022-11-20T10:39:03;6.90;99.90
44229;DHT22;29904;51.058;5.378;2022-11-20T10:41:34;7.00;99.90
44229;DHT22;29904;51.058;5.378;2022-11-20T10:46:35;7.00;99.90
44229;DHT22;29904;51.058;5.378;2022-11-20T10:49:04;7.00;99.90
44229;DHT22;29904;51.058;5.378;2022-11-20T11:00:09;7.20;99.90
44229;DHT22;29904;51.058;5.378;2022-11-20T11:02:43;7.20;99.90
44229;DHT22;29904;51.058;5.378;2022-11-20T11:08:05;7.30;99.90
44229;DHT22;29904;51.058;5.378;2022-11-20T11:13:20;7.30;99.90
44229;DHT22;29904;51.058;5.378;2022-11-20T11:15:46;7.30;99.90
44229;DHT22;29904;51.058;5.378;2022-11-20T11:18:22;7.40;99.90
44229;DHT22;29904;51.058;5.378;2022-11-20T11:20:51;7.40;99.90
44229;DHT22;29904;51.058;5.378;2022-11-20T11:23:46;7.50;99.90
44229;DHT22;29904;51.058;5.378;2022-11-20T11:26:23;7.60;99.90
44229;DHT22;29904;51.058;5.378;2022-11-20T11:29:01;7.70;99.90
44229;DHT22;29904;51.058;5.378;2022-11-20T11:31:33;7.80;99.90
44229;DHT22;29904;51.058;5.378;2022-11-20T11:34:15;7.90;99.90
44229;DHT22;29904;51.058;5.378;2022-11-20T11:36:42;8.00;99.90
44229;DHT22;29904;51.058;5.378;2022-11-20T11:39:16;8.10;99.90
44229;DHT22;29904;51.058;5.378;2022-11-20T11:41:43;8.10;99.90
44229;DHT22;29904;51.058;5.378;2022-11-20T11:44:21;8.10;99.90
44229;DHT22;29904;51.058;5.378;2022-11-20T11:47:43;8.10;99.90
44229;DHT22;29904;51.058;5.378;2022-11-20T11:50:18;8.10;99.90
44229;DHT22;29904;51.058;5.378;2022-11-20T11:53:13;8.10;99.90
44229;DHT22;29904;51.058;5.378;2022-11-20T11:58:47;8.30;99.90
44229;DHT22;29904;51.058;5.378;2022-11-20T12:06:34;8.60;99.90
44229;DHT22;29904;51.058;5.378;2022-11-20T12:09:08;8.60;99.90
44229;DHT22;29904;51.058;5.378;2022-11-20T12:14:34;8.80;99.90
44229;DHT22;29904;51.058;5.378;2022-11-20T12:17:01;8.90;99.90
44229;DHT22;29904;51.058;5.378;2022-11-20T12:19:33;8.90;99.90
44229;DHT22;29904;51.058;5.378;2022-11-20T12:22:07;8.90;99.90
44229;DHT22;29904;51.058;5.378;2022-11-20T12:27:56;9.00;99.90
44229;DHT22;29904;51.058;5.378;2022-11-20T12:30:26;9.20;99.90
44229;DHT22;29904;51.058;5.378;2022-11-20T12:50:28;9.60;99.90
44229;DHT22;29904;51.058;5.378;2022-11-20T12:53:04;9.70;99.90
44229;DHT22;29904;51.058;5.378;2022-11-20T13:00:56;9.90;99.90
44229;DHT22;29904;51.058;5.378;2022-11-20T13:03:39;9.80;99.90
44229;DHT22;29904;51.058;5.378;2022-11-20T13:08:39;9.80;99.90
44229;DHT22;29904;51.058;5.378;2022-11-20T13:11:18;9.80;99.90
44229;DHT22;29904;51.058;5.378;2022-11-20T13:19:02;9.90;99.90
44229;DHT22;29904;51.058;5.378;2022-11-20T13:21:43;9.80;99.90
44229;DHT22;29904;51.058;5.378;2022-11-20T13:26:44;9.90;99.90
44229;DHT22;29904;51.058;5.378;2022-11-20T13:29:16;9.90;99.90
44229;DHT22;29904;51.058;5.378;2022-11-20T13:31:46;9.80;99.90
44229;DHT22;29904;51.058;5.378;2022-11-20T13:34:27;9.80;99.90
44229;DHT22;29904;51.058;5.378;2022-11-20T13:36:55;9.70;99.90
44229;DHT22;29904;51.058;5.378;2022-11-20T13:39:29;9.70;99.90
44229;DHT22;29904;51.058;5.378;2022-11-20T13:42:15;9.60;99.90
44229;DHT22;29904;51.058;5.378;2022-11-20T13:44:53;9.40;99.90
44229;DHT22;29904;51.058;5.378;2022-11-20T13:47:24;9.20;99.90
44229;DHT22;29904;51.058;5.378;2022-11-20T13:49:52;9.10;99.90
44229;DHT22;29904;51.058;5.378;2022-11-20T13:55:33;8.70;99.90
44229;DHT22;29904;51.058;5.378;2022-11-20T14:00:52;8.60;99.90
44229;DHT22;29904;51.058;5.378;2022-11-20T14:03:24;8.50;99.90
44229;DHT22;29904;51.058;5.378;2022-11-20T14:06:05;8.50;99.90
44229;DHT22;29904;51.058;5.378;2022-11-20T14:08:51;8.40;99.90
44229;DHT22;29904;51.058;5.378;2022-11-20T14:11:20;8.40;99.90
44229;DHT22;29904;51.058;5.378;2022-11-20T14:14:04;8.30;99.90
44229;DHT22;29904;51.058;5.378;2022-11-20T14:16:36;8.30;99.90
44229;DHT22;29904;51.058;5.378;2022-11-20T14:19:25;8.30;99.90
44229;DHT22;29904;51.058;5.378;2022-11-20T14:22:14;8.20;99.90
44229;DHT22;29904;51.058;5.378;2022-11-20T14:24:43;8.20;99.90
44229;DHT22;29904;51.058;5.378;2022-11-20T14:27:20;8.20;99.90
44229;DHT22;29904;51.058;5.378;2022-11-20T14:29:49;8.20;99.90
44229;DHT22;29904;51.058;5.378;2022-11-20T14:32:19;8.20;99.90
44229;DHT22;29904;51.058;5.378;2022-11-20T14:34:49;8.20;99.90
44229;DHT22;29904;51.058;5.378;2022-11-20T14:37:24;8.10;99.90
44229;DHT22;29904;51.058;5.378;2022-11-20T14:39:56;8.10;99.90
44229;DHT22;29904;51.058;5.378;2022-11-20T14:42:25;8.10;99.90
44229;DHT22;29904;51.058;5.378;2022-11-20T14:44:55;8.10;99.90
44229;DHT22;29904;51.058;5.378;2022-11-20T14:47:24;8.00;99.90
44229;DHT22;29904;51.058;5.378;2022-11-20T14:49:52;8.00;99.90
44229;DHT22;29904;51.058;5.378;2022-11-20T14:52:20;8.00;99.90
44229;DHT22;29904;51.058;5.378;2022-11-20T14:54:56;8.00;99.90
44229;DHT22;29904;51.058;5.378;2022-11-20T14:57:31;8.00;99.90
44229;DHT22;29904;51.058;5.378;2022-11-20T15:02:43;8.00;99.90
44229;DHT22;29904;51.058;5.378;2022-11-20T15:05:09;7.90;99.90
44229;DHT22;29904;51.058;5.378;2022-11-20T15:07:37;7.90;99.90
44229;DHT22;29904;51.058;5.378;2022-11-20T15:10:06;7.90;99.90
44229;DHT22;29904;51.058;5.378;2022-11-20T15:12:36;7.90;99.90
44229;DHT22;29904;51.058;5.378;2022-11-20T15:15:02;7.90;99.90
44229;DHT22;29904;51.058;5.378;2022-11-20T15:17:31;7.80;99.90
44229;DHT22;29904;51.058;5.378;2022-11-20T15:19:59;7.80;99.90
44229;DHT22;29904;51.058;5.378;2022-11-20T15:22:26;7.80;99.90
44229;DHT22;29904;51.058;5.378;2022-11-20T15:24:52;7.80;99.90
44229;DHT22;29904;51.058;5.378;2022-11-20T15:27:18;7.80;99.90
44229;DHT22;29904;51.058;5.378;2022-11-20T15:29:43;7.90;99.90
44229;DHT22;29904;51.058;5.378;2022-11-20T15:32:11;8.00;99.90
44229;DHT22;29904;51.058;5.378;2022-11-20T15:34:37;7.90;99.90
44229;DHT22;29904;51.058;5.378;2022-11-20T15:37:03;7.90;99.90
44229;DHT22;29904;51.058;5.378;2022-11-20T15:39:28;7.80;99.90
44229;DHT22;29904;51.058;5.378;2022-11-20T15:41:54;7.80;99.90
44229;DHT22;29904;51.058;5.378;2022-11-20T15:44:20;7.80;99.90
44229;DHT22;29904;51.058;5.378;2022-11-20T15:46:47;7.80;99.90
44229;DHT22;29904;51.058;5.378;2022-11-20T15:49:16;7.90;99.90
44229;DHT22;29904;51.058;5.378;2022-11-20T15:51:46;7.90;99.90
44229;DHT22;29904;51.058;5.378;2022-11-20T15:54:21;7.80;99.90
44229;DHT22;29904;51.058;5.378;2022-11-20T15:56:48;7.80;99.90
44229;DHT22;29904;51.058;5.378;2022-11-20T15:59:14;7.80;99.90
44229;DHT22;29904;51.058;5.378;2022-11-20T16:01:42;7.90;99.90
44229;DHT22;29904;51.058;5.378;2022-11-20T16:04:13;7.90;99.90
44229;DHT22;29904;51.058;5.378;2022-11-20T16:06:40;7.90;99.90
44229;DHT22;29904;51.058;5.378;2022-11-20T16:09:06;7.90;99.90
44229;DHT22;29904;51.058;5.378;2022-11-20T16:11:32;7.90;99.90
44229;DHT22;29904;51.058;5.378;2022-11-20T16:13:58;7.90;99.90
44229;DHT22;29904;51.058;5.378;2022-11-20T16:16:42;7.90;99.90
44229;DHT22;29904;51.058;5.378;2022-11-20T16:19:15;8.00;99.90
44229;DHT22;29904;51.058;5.378;2022-11-20T16:21:41;7.90;99.90
44229;DHT22;29904;51.058;5.378;2022-11-20T16:24:10;8.00;99.90
44229;DHT22;29904;51.058;5.378;2022-11-20T16:26:38;7.90;99.90
44229;DHT22;29904;51.058;5.378;2022-11-20T16:29:04;8.00;99.90
44229;DHT22;29904;51.058;5.378;2022-11-20T16:31:33;8.00;99.90
44229;DHT22;29904;51.058;5.378;2022-11-20T16:34:02;8.00;99.90
44229;DHT22;29904;51.058;5.378;2022-11-20T16:36:28;8.00;99.90
44229;DHT22;29904;51.058;5.378;2022-11-20T16:38:59;8.00;99.90
44229;DHT22;29904;51.058;5.378;2022-11-20T16:41:27;8.10;99.90
44229;DHT22;29904;51.058;5.378;2022-11-20T16:43:55;8.10;99.90
44229;DHT22;29904;51.058;5.378;2022-11-20T16:46:27;8.10;99.90
44229;DHT22;29904;51.058;5.378;2022-11-20T16:48:58;8.10;99.90
44229;DHT22;29904;51.058;5.378;2022-11-20T16:51:25;8.20;99.90
44229;DHT22;29904;51.058;5.378;2022-11-20T16:53:53;8.20;99.90
44229;DHT22;29904;51.058;5.378;2022-11-20T16:56:25;8.20;99.90
44229;DHT22;29904;51.058;5.378;2022-11-20T16:58:53;8.30;99.90
44229;DHT22;29904;51.058;5.378;2022-11-20T17:01:22;8.30;99.90
44229;DHT22;29904;51.058;5.378;2022-11-20T17:04:00;8.30;99.90
44229;DHT22;29904;51.058;5.378;2022-11-20T17:06:28;8.30;99.90
44229;DHT22;29904;51.058;5.378;2022-11-20T17:08:55;8.40;99.90
44229;DHT22;29904;51.058;5.378;2022-11-20T17:11:21;8.40;99.90
44229;DHT22;29904;51.058;5.378;2022-11-20T17:13:47;8.50;99.90
44229;DHT22;29904;51.058;5.378;2022-11-20T17:16:16;8.40;99.90
44229;DHT22;29904;51.058;5.378;2022-11-20T17:18:43;8.50;99.90
44229;DHT22;29904;51.058;5.378;2022-11-20T17:21:09;8.50;99.90
44229;DHT22;29904;51.058;5.378;2022-11-20T17:23:36;8.50;99.90
44229;DHT22;29904;51.058;5.378;2022-11-20T17:26:11;8.50;99.90
44229;DHT22;29904;51.058;5.378;2022-11-20T17:28:39;8.50;99.90
44229;DHT22;29904;51.058;5.378;2022-11-20T17:31:11;8.50;99.90
44229;DHT22;29904;51.058;5.378;2022-11-20T17:33:39;8.40;99.90
44229;DHT22;29904;51.058;5.378;2022-11-20T17:36:06;8.30;99.90
44229;DHT22;29904;51.058;5.378;2022-11-20T17:38:32;8.40;99.90
44229;DHT22;29904;51.058;5.378;2022-11-20T17:41:04;8.40;99.90
44229;DHT22;29904;51.058;5.378;2022-11-20T17:43:31;8.40;99.90
44229;DHT22;29904;51.058;5.378;2022-11-20T17:45:57;8.50;99.90
44229;DHT22;29904;51.058;5.378;2022-11-20T17:48:23;8.50;99.90
44229;DHT22;29904;51.058;5.378;2022-11-20T17:50:49;8.50;99.90
44229;DHT22;29904;51.058;5.378;2022-11-20T17:53:15;8.50;99.90
44229;DHT22;29904;51.058;5.378;2022-11-20T17:55:43;8.50;99.90